createdAt,value
2023-08-21T00:00:26.067Z,24.91
2023-08-21T00:02:58.469Z,25.04
2023-08-21T00:05:29.246Z,25.13
2023-08-21T00:07:59.771Z,25.21
2023-08-21T00:10:30.328Z,25.39
2023-08-21T00:13:00.927Z,25.52
2023-08-21T00:15:31.440Z,25.63
2023-08-21T00:18:04.048Z,25.52
2023-08-21T00:20:34.806Z,25.80
2023-08-21T00:23:05.947Z,25.90
2023-08-21T00:25:37.137Z,26.00
2023-08-21T00:28:08.337Z,26.16
2023-08-21T00:30:40.034Z,26.24
2023-08-21T00:33:12.305Z,26.45
2023-08-21T00:35:42.855Z,26.59
2023-08-21T00:38:13.581Z,26.72
2023-08-21T00:40:44.149Z,26.68
2023-08-21T00:43:14.765Z,26.79
2023-08-21T00:45:46.839Z,26.97
2023-08-21T00:48:19.367Z,27.04
2023-08-21T00:50:50.246Z,27.14
2023-08-21T00:53:20.920Z,27.23
2023-08-21T00:55:51.599Z,27.26
2023-08-21T00:58:22.240Z,27.42
2023-08-21T01:00:55.393Z,27.60
2023-08-21T01:03:27.648Z,27.66
2023-08-21T01:05:59.243Z,27.50
2023-08-21T01:08:35.202Z,27.72
2023-08-21T01:11:15.351Z,27.73
2023-08-21T01:13:58.139Z,27.80
2023-08-21T01:16:29.984Z,27.90
2023-08-21T01:19:04.973Z,28.02
2023-08-21T01:21:35.578Z,28.04
2023-08-21T01:24:08.160Z,28.06
2023-08-21T01:26:38.724Z,28.08
2023-08-21T01:29:09.341Z,28.10
2023-08-21T01:31:45.005Z,28.14
2023-08-21T01:34:18.665Z,28.23
2023-08-21T01:36:49.645Z,28.31
2023-08-21T01:39:22.633Z,28.37
2023-08-21T01:41:53.193Z,28.48
2023-08-21T01:44:23.815Z,28.52
2023-08-21T01:46:54.511Z,28.65
2023-08-21T01:49:25.181Z,28.75
2023-08-21T01:51:55.840Z,28.72
2023-08-21T01:54:28.152Z,28.78
2023-08-21T01:56:59.010Z,28.80
2023-08-21T01:59:29.544Z,28.72
2023-08-21T02:02:00.072Z,28.82
2023-08-21T02:04:30.568Z,28.95
2023-08-21T02:07:01.142Z,29.05
2023-08-21T02:09:33.289Z,29.13
2023-08-21T02:12:03.847Z,29.19
2023-08-21T02:14:34.344Z,29.23
2023-08-21T02:17:05.247Z,29.29
2023-08-21T02:19:35.874Z,29.28
2023-08-21T02:22:06.389Z,29.26
2023-08-21T02:24:38.549Z,29.40
2023-08-21T02:27:09.130Z,29.38
2023-08-21T02:29:39.751Z,29.41
2023-08-21T02:32:10.568Z,29.48
2023-08-21T02:34:41.501Z,29.60
2023-08-21T02:37:12.043Z,29.76
2023-08-21T02:39:44.249Z,29.78
2023-08-21T02:42:14.817Z,29.78
2023-08-21T02:44:45.410Z,29.79
2023-08-21T02:47:15.979Z,29.80
2023-08-21T02:49:46.623Z,29.78
2023-08-21T02:52:17.182Z,29.83
2023-08-21T02:54:49.362Z,29.88
2023-08-21T02:57:19.892Z,29.92
2023-08-21T02:59:50.508Z,29.94
2023-08-21T03:02:21.769Z,29.81
2023-08-21T03:05:15.392Z,29.99
2023-08-21T03:07:48.378Z,29.98
2023-08-21T03:10:27.079Z,29.98
2023-08-21T03:13:03.400Z,30.06
2023-08-21T03:15:44.101Z,30.12
2023-08-21T03:18:28.725Z,30.09
2023-08-21T03:21:02.701Z,30.17
2023-08-21T03:23:33.310Z,30.21
2023-08-21T03:26:05.507Z,30.20
2023-08-21T03:28:36.082Z,30.19
2023-08-21T03:31:06.595Z,30.26
2023-08-21T03:33:37.413Z,30.28
2023-08-21T03:36:08.373Z,30.35
2023-08-21T03:38:38.907Z,30.35
2023-08-21T03:41:11.041Z,30.30
2023-08-21T03:43:41.676Z,30.35
2023-08-21T03:46:12.193Z,30.38
2023-08-21T03:48:42.963Z,30.44
2023-08-21T03:51:13.553Z,30.50
2023-08-21T03:53:44.085Z,30.58
2023-08-21T03:56:16.235Z,30.62
2023-08-21T03:58:46.866Z,30.62
2023-08-21T04:01:17.871Z,30.61
2023-08-21T04:03:48.644Z,30.62
2023-08-21T04:06:19.447Z,30.62
2023-08-21T04:08:50.133Z,30.58
2023-08-21T04:11:22.374Z,30.57
2023-08-21T04:13:52.859Z,30.58
2023-08-21T04:16:23.578Z,30.57
2023-08-21T04:18:55.218Z,30.58
2023-08-21T04:21:26.748Z,30.64
2023-08-21T04:23:59.099Z,30.60
2023-08-21T04:26:31.944Z,30.63
2023-08-21T04:29:02.966Z,30.68
2023-08-21T04:31:34.246Z,30.72
2023-08-21T04:34:07.327Z,30.75
2023-08-21T04:36:39.757Z,30.72
2023-08-21T04:39:15.996Z,30.66
2023-08-21T04:41:48.914Z,30.44
2023-08-21T04:44:20.362Z,30.65
2023-08-21T04:46:54.297Z,30.64
2023-08-21T04:49:25.416Z,30.66
2023-08-21T04:51:58.511Z,30.62
2023-08-21T04:54:29.828Z,30.64
2023-08-21T04:57:02.826Z,30.69
2023-08-21T04:59:33.745Z,30.61
2023-08-21T05:02:08.524Z,30.53
2023-08-21T05:04:40.943Z,30.47
2023-08-21T05:07:12.150Z,30.58
2023-08-21T05:09:43.372Z,30.65
2023-08-21T05:12:16.755Z,30.64
2023-08-21T05:14:47.812Z,30.63
2023-08-21T05:17:19.547Z,30.57
2023-08-21T05:19:50.569Z,30.57
2023-08-21T05:22:21.854Z,30.51
2023-08-21T05:24:52.883Z,30.49
2023-08-21T05:27:25.846Z,30.41
2023-08-21T05:29:57.134Z,30.37
2023-08-21T05:32:28.782Z,30.15
2023-08-21T05:35:00.190Z,30.33
2023-08-21T05:37:31.322Z,30.43
2023-08-21T05:40:03.064Z,30.44
2023-08-21T05:42:36.157Z,30.30
2023-08-21T05:45:07.960Z,30.26
2023-08-21T05:47:40.320Z,30.21
2023-08-21T05:50:12.122Z,30.19
2023-08-21T05:52:43.669Z,30.13
2023-08-21T05:55:15.188Z,30.04
2023-08-21T05:57:47.405Z,29.99
2023-08-21T06:00:18.956Z,29.94
2023-08-21T06:02:49.550Z,30.06
2023-08-21T06:05:20.211Z,30.02
2023-08-21T06:07:51.139Z,29.96
2023-08-21T06:10:21.892Z,29.90
2023-08-21T06:12:54.048Z,29.79
2023-08-21T06:15:24.641Z,29.76
2023-08-21T06:17:55.353Z,29.74
2023-08-21T06:20:26.008Z,29.70
2023-08-21T06:22:56.643Z,29.67
2023-08-21T06:25:27.296Z,29.58
2023-08-21T06:28:00.011Z,29.63
2023-08-21T06:30:31.601Z,29.59
2023-08-21T06:33:02.244Z,29.51
2023-08-21T06:35:32.882Z,29.54
2023-08-21T06:38:03.466Z,29.53
2023-08-21T06:40:34.040Z,29.46
2023-08-21T06:43:07.796Z,29.45
2023-08-21T06:45:41.103Z,29.40
2023-08-21T06:48:11.765Z,29.34
2023-08-21T06:50:43.247Z,29.23
2023-08-21T06:53:13.915Z,29.22
2023-08-21T06:55:44.441Z,29.07
2023-08-21T06:58:16.721Z,29.14
2023-08-21T07:00:47.354Z,29.14
2023-08-21T07:03:17.982Z,28.88
2023-08-21T07:05:57.077Z,28.96
2023-08-21T07:08:27.970Z,28.64
2023-08-21T07:10:58.902Z,28.70
2023-08-21T07:13:31.232Z,28.69
2023-08-21T07:16:04.408Z,28.61
2023-08-21T07:18:37.067Z,28.36
2023-08-21T07:21:15.506Z,28.60
2023-08-21T07:23:53.256Z,28.62
2023-08-21T07:26:23.783Z,28.65
2023-08-21T07:28:56.692Z,28.59
2023-08-21T07:31:27.641Z,28.58
2023-08-21T07:33:59.429Z,28.52
2023-08-21T07:36:30.009Z,28.47
2023-08-21T07:39:02.447Z,28.47
2023-08-21T07:41:33.190Z,28.24
2023-08-21T07:44:05.561Z,28.38
2023-08-21T07:46:36.255Z,28.33
2023-08-21T07:49:06.919Z,28.22
2023-08-21T07:51:37.593Z,28.16
2023-08-21T07:54:08.275Z,28.11
2023-08-21T07:56:39.414Z,28.03
2023-08-21T07:59:11.938Z,27.93
2023-08-21T08:01:42.648Z,27.75
2023-08-21T08:04:14.485Z,27.69
2023-08-21T08:06:46.408Z,27.49
2023-08-21T08:09:17.017Z,27.47
2023-08-21T08:11:50.371Z,27.40
2023-08-21T08:14:22.623Z,27.28
2023-08-21T08:16:53.329Z,27.27
2023-08-21T08:19:23.987Z,27.10
2023-08-21T08:21:54.552Z,27.10
2023-08-21T08:24:25.298Z,27.02
2023-08-21T08:26:55.919Z,26.94
2023-08-21T08:29:28.190Z,26.83
2023-08-21T08:31:58.790Z,26.77
2023-08-21T08:34:29.450Z,26.76
2023-08-21T08:37:00.117Z,26.74
2023-08-21T08:39:30.722Z,26.71
2023-08-21T08:42:06.324Z,26.55
2023-08-21T08:44:40.222Z,26.49
2023-08-21T08:47:11.548Z,26.41
2023-08-21T08:49:42.275Z,26.38
2023-08-21T08:52:13.595Z,26.23
2023-08-21T08:54:44.553Z,26.10
2023-08-21T08:57:15.344Z,25.96
2023-08-21T08:59:47.518Z,25.83
2023-08-21T09:02:19.789Z,25.74
2023-08-21T09:04:54.272Z,25.47
2023-08-21T09:07:26.371Z,25.44
2023-08-21T09:09:57.940Z,25.20
2023-08-21T09:12:29.497Z,25.05
2023-08-21T09:15:03.880Z,24.87
2023-08-21T09:17:37.551Z,24.70
2023-08-21T09:20:10.356Z,24.53
2023-08-21T09:22:42.123Z,24.25
2023-08-21T09:25:14.202Z,24.19
2023-08-21T09:27:46.287Z,24.08
2023-08-21T09:30:20.225Z,23.92
2023-08-21T09:32:59.727Z,23.79
2023-08-21T09:35:32.341Z,23.76
2023-08-21T09:38:04.606Z,23.61
2023-08-21T09:40:36.321Z,23.49
2023-08-21T09:43:08.802Z,23.39
2023-08-21T09:45:42.575Z,23.25
2023-08-21T09:48:14.588Z,23.13
2023-08-21T09:50:47.766Z,23.04
2023-08-21T09:53:19.541Z,22.96
2023-08-21T09:55:52.328Z,22.89
2023-08-21T09:58:24.734Z,22.86
2023-08-21T10:01:01.693Z,22.71
2023-08-21T10:03:34.146Z,22.70
2023-08-21T10:06:08.483Z,22.58
2023-08-21T10:08:43.026Z,22.45
2023-08-21T10:11:15.894Z,22.25
2023-08-21T10:13:47.280Z,22.22
2023-08-21T10:16:21.771Z,22.15
2023-08-21T10:18:53.556Z,22.09
2023-08-21T10:21:28.834Z,22.07
2023-08-21T10:24:04.224Z,21.94
2023-08-21T10:29:12.563Z,21.69
2023-08-21T10:31:46.599Z,21.57
2023-08-21T10:34:18.930Z,21.48
2023-08-21T10:37:12.261Z,21.39
2023-08-21T10:39:44.759Z,21.24
2023-08-21T10:42:17.794Z,21.27
2023-08-21T10:44:54.448Z,21.25
2023-08-21T10:47:35.716Z,21.06
2023-08-21T10:50:09.037Z,21.09
2023-08-21T10:52:43.767Z,21.03
2023-08-21T10:55:15.674Z,20.93
2023-08-21T10:57:47.368Z,20.62
2023-08-21T11:00:20.658Z,20.78
2023-08-21T11:02:54.192Z,20.78
2023-08-21T11:05:25.737Z,20.73
2023-08-21T11:07:59.384Z,20.70
2023-08-21T11:10:35.569Z,20.68
2023-08-21T11:13:10.974Z,20.59
2023-08-21T11:15:42.345Z,20.54
2023-08-21T11:18:15.733Z,20.40
2023-08-21T11:20:47.628Z,20.44
2023-08-21T11:23:20.019Z,20.36
2023-08-21T11:25:51.383Z,20.28
2023-08-21T11:28:23.078Z,20.17
2023-08-21T11:30:55.309Z,20.04
2023-08-21T11:33:30.440Z,19.51
2023-08-21T11:36:02.420Z,19.89
2023-08-21T11:38:34.030Z,19.89
2023-08-21T11:41:09.746Z,20.00
2023-08-21T11:43:42.384Z,19.85
2023-08-21T11:46:15.939Z,20.18
2023-08-21T11:48:49.712Z,20.24
2023-08-21T11:51:22.172Z,20.25
2023-08-21T11:53:53.511Z,20.20
2023-08-21T11:56:25.085Z,20.19
2023-08-21T11:58:56.762Z,20.23
2023-08-21T12:01:28.658Z,20.24
2023-08-21T12:04:02.549Z,20.09
2023-08-21T12:06:34.730Z,20.25
2023-08-21T12:09:07.217Z,20.23
2023-08-21T12:11:40.423Z,20.21
2023-08-21T12:14:12.264Z,20.17
2023-08-21T12:16:43.744Z,20.04
2023-08-21T12:19:16.996Z,20.12
2023-08-21T12:21:48.424Z,20.10
2023-08-21T12:24:19.973Z,20.13
2023-08-21T12:26:51.611Z,20.14
2023-08-21T12:29:23.264Z,20.16
2023-08-21T12:31:54.593Z,20.16
2023-08-21T12:34:27.879Z,20.15
2023-08-21T12:36:59.406Z,20.07
2023-08-21T12:39:30.827Z,20.21
2023-08-21T12:42:02.407Z,20.22
2023-08-21T12:47:05.341Z,20.34
2023-08-21T12:49:38.728Z,20.44
2023-08-21T12:52:11.134Z,20.47
2023-08-21T12:54:42.752Z,20.45
2023-08-21T12:57:14.846Z,20.45
2023-08-21T12:59:46.363Z,20.46
2023-08-21T13:02:18.376Z,20.19
2023-08-21T13:04:51.758Z,20.39
2023-08-21T13:07:23.381Z,20.18
2023-08-21T13:09:54.867Z,20.43
2023-08-21T13:12:27.207Z,20.00
2023-08-21T13:14:58.780Z,20.48
2023-08-21T13:17:30.350Z,20.43
2023-08-21T13:20:03.711Z,20.53
2023-08-21T13:22:50.956Z,20.53
2023-08-21T13:25:23.961Z,20.58
2023-08-21T13:27:55.985Z,20.53
2023-08-21T13:30:29.443Z,20.55
2023-08-21T13:33:00.139Z,20.54
2023-08-21T13:35:32.531Z,20.54
2023-08-21T13:38:03.252Z,20.53
2023-08-21T13:40:33.936Z,20.50
2023-08-21T13:43:05.299Z,20.46
2023-08-21T13:45:36.364Z,20.44
2023-08-21T13:48:07.808Z,20.41
2023-08-21T13:50:40.204Z,20.42
2023-08-21T13:53:23.570Z,20.45
2023-08-21T13:55:54.854Z,20.33
2023-08-21T13:58:26.437Z,20.41
2023-08-21T14:01:00.143Z,20.36
2023-08-21T14:03:30.807Z,20.26
2023-08-21T14:06:03.063Z,20.36
2023-08-21T14:08:33.662Z,20.32
2023-08-21T14:11:04.289Z,20.25
2023-08-21T14:13:34.874Z,20.23
2023-08-21T14:16:05.927Z,20.22
2023-08-21T14:18:36.662Z,20.16
2023-08-21T14:21:09.035Z,20.13
2023-08-21T14:23:41.021Z,20.01
2023-08-21T14:26:17.197Z,20.03
2023-08-21T14:28:54.441Z,19.88
2023-08-21T14:31:25.140Z,19.89
2023-08-21T14:33:59.579Z,19.86
2023-08-21T14:36:31.955Z,19.87
2023-08-21T14:39:02.911Z,19.85
2023-08-21T14:41:33.635Z,19.86
2023-08-21T14:44:04.826Z,19.86
2023-08-21T14:46:42.939Z,19.88
2023-08-21T14:49:15.481Z,19.92
2023-08-21T14:51:47.835Z,19.92
2023-08-21T14:54:21.220Z,19.81
2023-08-21T14:56:53.346Z,19.89
2023-08-21T14:59:28.782Z,19.90
2023-08-21T15:02:00.043Z,19.89
2023-08-21T15:04:30.964Z,19.84
2023-08-21T15:07:03.145Z,19.76
2023-08-21T15:09:35.312Z,19.63
2023-08-21T15:12:07.692Z,19.55
2023-08-21T15:14:41.303Z,19.52
2023-08-21T15:17:18.758Z,19.52
2023-08-21T15:19:52.389Z,19.46
2023-08-21T15:22:24.706Z,19.25
2023-08-21T15:24:55.259Z,19.11
2023-08-21T15:27:25.909Z,18.90
2023-08-21T15:29:59.424Z,18.84
2023-08-21T15:32:30.053Z,18.79
2023-08-21T15:35:03.110Z,18.73
2023-08-21T15:37:35.483Z,18.73
2023-08-21T15:40:06.059Z,18.75
2023-08-21T15:42:39.829Z,18.83
2023-08-21T15:45:11.095Z,18.91
2023-08-21T15:47:47.867Z,19.05
2023-08-21T15:50:21.639Z,19.14
2023-08-21T15:52:53.884Z,19.24
2023-08-21T15:55:27.001Z,19.30
2023-08-21T15:58:00.233Z,19.35
2023-08-21T16:00:30.919Z,19.43
2023-08-21T16:03:06.227Z,19.48
2023-08-21T16:05:36.935Z,19.52
2023-08-21T16:08:12.547Z,19.56
2023-08-21T16:10:43.302Z,19.53
2023-08-21T16:13:16.019Z,19.57
2023-08-21T16:15:46.890Z,19.58
2023-08-21T16:18:17.600Z,19.56
2023-08-21T16:20:48.283Z,19.53
2023-08-21T16:23:20.531Z,19.51
2023-08-21T16:25:51.212Z,19.54
2023-08-21T16:28:21.862Z,19.57
2023-08-21T16:30:52.584Z,19.62
2023-08-21T16:33:26.240Z,19.66
2023-08-21T16:35:59.496Z,19.69
2023-08-21T16:38:31.802Z,19.43
2023-08-21T16:41:02.458Z,19.54
2023-08-21T16:43:35.972Z,19.66
2023-08-21T16:46:06.781Z,19.74
2023-08-21T16:48:37.455Z,19.78
2023-08-21T16:51:10.740Z,19.83
2023-08-21T16:53:46.081Z,19.83
2023-08-21T16:56:16.782Z,19.91
2023-08-21T16:58:49.852Z,19.91
2023-08-21T17:01:21.193Z,19.89
2023-08-21T17:03:51.842Z,19.88
2023-08-21T17:06:22.432Z,19.83
2023-08-21T17:08:54.987Z,19.75
2023-08-21T17:11:27.433Z,19.76
2023-08-21T17:14:03.651Z,19.70
2023-08-21T17:16:34.329Z,19.63
2023-08-21T17:19:05.035Z,19.61
2023-08-21T17:21:39.370Z,19.59
2023-08-21T17:24:14.793Z,19.61
2023-08-21T17:26:45.773Z,19.61
2023-08-21T17:29:16.355Z,19.63
2023-08-21T17:31:46.962Z,19.63
2023-08-21T17:34:17.519Z,19.63
2023-08-21T17:36:49.175Z,19.70
2023-08-21T17:39:21.413Z,19.67
2023-08-21T17:41:53.697Z,19.73
2023-08-21T17:44:29.987Z,19.74
2023-08-21T17:47:01.603Z,19.76
2023-08-21T17:49:35.125Z,19.82
2023-08-21T17:52:09.754Z,19.82
2023-08-21T17:54:42.060Z,19.86
2023-08-21T17:57:12.727Z,19.86
2023-08-21T17:59:46.553Z,19.91
2023-08-21T18:02:27.246Z,19.92
2023-08-21T18:05:01.644Z,19.91
2023-08-21T18:07:32.418Z,19.92
2023-08-21T18:10:04.961Z,19.94
2023-08-21T18:12:35.675Z,19.98
2023-08-21T18:15:07.010Z,20.00
2023-08-21T18:17:37.891Z,20.03
2023-08-21T18:20:12.291Z,20.08
2023-08-21T18:22:42.970Z,20.09
2023-08-21T18:25:15.555Z,20.12
2023-08-21T18:27:46.165Z,20.16
2023-08-21T18:30:22.719Z,20.15
2023-08-21T18:32:53.485Z,20.21
2023-08-21T18:35:24.040Z,20.28
2023-08-21T18:37:54.576Z,20.29
2023-08-21T18:40:27.078Z,20.18
2023-08-21T18:42:57.568Z,20.14
2023-08-21T18:45:28.131Z,20.10
2023-08-21T18:48:00.480Z,20.06
2023-08-21T18:50:40.668Z,19.96
2023-08-21T18:53:13.612Z,20.10
2023-08-21T18:55:47.028Z,20.12
2023-08-21T18:58:19.958Z,20.14
2023-08-21T19:00:50.446Z,20.14
2023-08-21T19:03:21.103Z,20.19
2023-08-21T19:05:51.613Z,20.16
2023-08-21T19:08:22.580Z,20.24
2023-08-21T19:10:54.639Z,20.26
2023-08-21T19:13:25.245Z,20.26
2023-08-21T19:15:55.827Z,20.29
2023-08-21T19:18:26.449Z,20.30
2023-08-21T19:21:01.572Z,20.30
2023-08-21T19:23:32.106Z,20.31
2023-08-21T19:26:04.483Z,19.92
2023-08-21T19:28:34.954Z,20.32
2023-08-21T19:31:11.725Z,20.28
2023-08-21T19:33:42.256Z,20.30
2023-08-21T19:36:16.438Z,20.30
2023-08-21T19:38:51.023Z,20.33
2023-08-21T19:41:23.118Z,20.35
2023-08-21T19:43:53.548Z,20.38
2023-08-21T19:46:24.238Z,20.34
2023-08-21T19:48:55.481Z,20.35
2023-08-21T19:51:26.021Z,20.13
2023-08-21T19:53:56.630Z,20.36
2023-08-21T19:56:29.854Z,20.34
2023-08-21T19:59:00.551Z,20.39
2023-08-21T20:01:31.176Z,20.38
2023-08-21T20:04:02.466Z,20.39
2023-08-21T20:06:33.774Z,20.36
2023-08-21T20:09:04.373Z,20.38
2023-08-21T20:11:36.658Z,20.41
2023-08-21T20:14:07.224Z,20.46
2023-08-21T20:16:37.817Z,20.51
2023-08-21T20:19:08.326Z,20.47
2023-08-21T20:21:38.822Z,20.48
2023-08-21T20:24:09.869Z,20.48
2023-08-21T20:26:42.050Z,20.50
2023-08-21T20:29:13.797Z,20.43
2023-08-21T20:31:44.360Z,20.57
2023-08-21T20:34:14.834Z,20.62
2023-08-21T20:36:45.478Z,20.71
2023-08-21T20:39:16.414Z,20.80
2023-08-21T20:41:48.600Z,20.89
2023-08-21T20:44:19.114Z,20.93
2023-08-21T20:46:49.625Z,20.94
2023-08-21T20:49:20.168Z,20.72
2023-08-21T20:51:50.681Z,20.95
2023-08-21T20:54:21.247Z,20.97
2023-08-21T20:56:53.439Z,20.95
2023-08-21T20:59:23.937Z,20.92
2023-08-21T21:01:55.148Z,20.89
2023-08-21T21:04:25.771Z,20.92
2023-08-21T21:06:56.418Z,20.97
2023-08-21T21:09:27.017Z,20.99
2023-08-21T21:11:59.320Z,21.07
2023-08-21T21:14:30.203Z,20.92
2023-08-21T21:17:00.947Z,21.24
2023-08-21T21:19:31.476Z,21.29
2023-08-21T21:22:02.017Z,21.35
2023-08-21T21:24:32.668Z,21.41
2023-08-21T21:27:05.106Z,21.52
2023-08-21T21:29:37.253Z,21.38
2023-08-21T21:32:09.924Z,21.39
2023-08-21T21:34:40.520Z,21.72
2023-08-21T21:37:11.098Z,21.75
2023-08-21T21:39:41.752Z,21.59
2023-08-21T21:42:14.400Z,21.66
2023-08-21T21:44:45.044Z,21.84
2023-08-21T21:47:15.579Z,21.92
2023-08-21T21:49:46.830Z,21.93
2023-08-21T21:52:18.266Z,21.73
2023-08-21T21:54:48.901Z,22.04
2023-08-21T21:57:22.100Z,21.87
2023-08-21T21:59:53.687Z,22.17
2023-08-21T22:02:24.837Z,22.20
2023-08-21T22:04:55.524Z,22.28
2023-08-21T22:07:26.624Z,22.38
2023-08-21T22:09:57.194Z,22.53
2023-08-21T22:12:29.777Z,22.38
2023-08-21T22:15:00.300Z,22.74
2023-08-21T22:17:30.908Z,22.83
2023-08-21T22:20:01.441Z,22.96
2023-08-21T22:22:32.006Z,23.00
2023-08-21T22:25:02.545Z,23.04
2023-08-21T22:27:34.803Z,23.05
2023-08-21T22:30:06.316Z,23.10
2023-08-21T22:32:36.904Z,23.14
2023-08-21T22:35:08.120Z,23.24
2023-08-21T22:37:38.976Z,23.47
2023-08-21T22:40:10.722Z,23.70
2023-08-21T22:42:42.959Z,23.82
2023-08-21T22:45:14.206Z,24.03
2023-08-21T22:47:44.749Z,24.11
2023-08-21T22:50:15.782Z,24.15
2023-08-21T22:52:46.321Z,24.13
2023-08-21T22:55:17.092Z,24.01
2023-08-21T22:57:49.542Z,23.90
2023-08-21T23:00:20.985Z,23.90
2023-08-21T23:02:51.647Z,23.92
2023-08-21T23:05:23.462Z,23.93
2023-08-21T23:07:54.096Z,23.76
2023-08-21T23:10:24.853Z,23.71
2023-08-21T23:12:57.034Z,23.63
2023-08-21T23:17:57.952Z,23.56
2023-08-21T23:20:28.695Z,23.55
2023-08-21T23:22:59.203Z,23.52
2023-08-21T23:25:29.752Z,23.52
2023-08-21T23:28:01.935Z,23.61
2023-08-21T23:30:32.490Z,23.66
2023-08-21T23:33:03.054Z,23.75
2023-08-21T23:35:33.611Z,23.85
2023-08-21T23:38:04.307Z,23.96
2023-08-21T23:40:35.915Z,24.00
2023-08-21T23:43:08.967Z,23.90
2023-08-21T23:45:39.828Z,23.88
2023-08-21T23:48:10.772Z,23.87
2023-08-21T23:50:41.630Z,23.77
2023-08-21T23:53:12.263Z,23.95
2023-08-21T23:55:43.069Z,24.13
2023-08-21T23:58:15.231Z,24.24
